sensor_id;sensor_type;location;lat;lon;timestamp;P1;durP1;ratioP1;P2;durP2;ratioP2
16426;SDS011;8322;-33.900;151.170;2023-01-01T00:00:06;11.07;;;2.00;;
16426;SDS011;8322;-33.900;151.170;2023-01-01T00:02:36;9.40;;;1.52;;
16426;SDS011;8322;-33.900;151.170;2023-01-01T00:05:05;9.52;;;1.70;;
16426;SDS011;8322;-33.900;151.170;2023-01-01T00:07:35;9.57;;;1.77;;
16426;SDS011;8322;-33.900;151.170;2023-01-01T00:10:05;10.57;;;1.80;;
16426;SDS011;8322;-33.900;151.170;2023-01-01T00:12:50;7.10;;;1.38;;
16426;SDS011;8322;-33.900;151.170;2023-01-01T00:15:21;8.02;;;1.77;;
16426;SDS011;8322;-33.900;151.170;2023-01-01T00:17:51;9.57;;;1.90;;
16426;SDS011;8322;-33.900;151.170;2023-01-01T00:20:21;9.05;;;1.90;;
16426;SDS011;8322;-33.900;151.170;2023-01-01T00:22:50;7.18;;;1.65;;
16426;SDS011;8322;-33.900;151.170;2023-01-01T00:25:19;9.50;;;2.00;;
16426;SDS011;8322;-33.900;151.170;2023-01-01T00:27:49;10.80;;;1.50;;
16426;SDS011;8322;-33.900;151.170;2023-01-01T00:30:19;9.43;;;1.55;;
16426;SDS011;8322;-33.900;151.170;2023-01-01T00:32:51;11.68;;;2.00;;
16426;SDS011;8322;-33.900;151.170;2023-01-01T00:35:21;10.45;;;1.85;;
16426;SDS011;8322;-33.900;151.170;2023-01-01T00:37:50;7.90;;;1.90;;
16426;SDS011;8322;-33.900;151.170;2023-01-01T00:40:19;9.35;;;2.00;;
16426;SDS011;8322;-33.900;151.170;2023-01-01T00:42:49;13.30;;;2.97;;
16426;SDS011;8322;-33.900;151.170;2023-01-01T00:45:18;11.50;;;1.95;;
16426;SDS011;8322;-33.900;151.170;2023-01-01T00:47:48;10.90;;;2.20;;
16426;SDS011;8322;-33.900;151.170;2023-01-01T00:50:19;10.52;;;2.35;;
16426;SDS011;8322;-33.900;151.170;2023-01-01T00:52:49;11.48;;;2.00;;
16426;SDS011;8322;-33.900;151.170;2023-01-01T00:55:18;9.65;;;1.92;;
16426;SDS011;8322;-33.900;151.170;2023-01-01T00:57:47;12.75;;;2.55;;
16426;SDS011;8322;-33.900;151.170;2023-01-01T01:00:17;9.13;;;2.08;;
16426;SDS011;8322;-33.900;151.170;2023-01-01T01:02:46;10.88;;;2.00;;
16426;SDS011;8322;-33.900;151.170;2023-01-01T01:05:16;10.77;;;1.88;;
16426;SDS011;8322;-33.900;151.170;2023-01-01T01:07:47;9.45;;;2.10;;
16426;SDS011;8322;-33.900;151.170;2023-01-01T01:10:16;11.13;;;2.17;;
16426;SDS011;8322;-33.900;151.170;2023-01-01T01:12:47;8.90;;;1.90;;
16426;SDS011;8322;-33.900;151.170;2023-01-01T01:15:16;10.40;;;2.08;;
16426;SDS011;8322;-33.900;151.170;2023-01-01T01:17:46;10.35;;;2.00;;
16426;SDS011;8322;-33.900;151.170;2023-01-01T01:20:15;12.05;;;2.63;;
16426;SDS011;8322;-33.900;151.170;2023-01-01T01:22:45;9.40;;;2.05;;
16426;SDS011;8322;-33.900;151.170;2023-01-01T01:25:16;11.00;;;2.05;;
16426;SDS011;8322;-33.900;151.170;2023-01-01T01:27:45;7.43;;;1.42;;
16426;SDS011;8322;-33.900;151.170;2023-01-01T01:30:15;7.30;;;1.65;;
16426;SDS011;8322;-33.900;151.170;2023-01-01T01:32:44;9.13;;;1.90;;
16426;SDS011;8322;-33.900;151.170;2023-01-01T01:35:14;8.00;;;1.95;;
16426;SDS011;8322;-33.900;151.170;2023-01-01T01:37:43;8.60;;;1.67;;
16426;SDS011;8322;-33.900;151.170;2023-01-01T01:40:13;9.77;;;2.05;;
16426;SDS011;8322;-33.900;151.170;2023-01-01T01:42:46;8.82;;;2.30;;
16426;SDS011;8322;-33.900;151.170;2023-01-01T01:45:16;8.38;;;1.70;;
16426;SDS011;8322;-33.900;151.170;2023-01-01T01:47:46;9.85;;;1.92;;
16426;SDS011;8322;-33.900;151.170;2023-01-01T01:50:18;8.95;;;1.88;;
16426;SDS011;8322;-33.900;151.170;2023-01-01T01:52:54;7.10;;;1.60;;
16426;SDS011;8322;-33.900;151.170;2023-01-01T01:55:26;9.52;;;2.30;;
16426;SDS011;8322;-33.900;151.170;2023-01-01T01:57:58;7.20;;;2.03;;
16426;SDS011;8322;-33.900;151.170;2023-01-01T02:00:28;7.32;;;1.70;;
16426;SDS011;8322;-33.900;151.170;2023-01-01T02:02:58;8.70;;;1.95;;
16426;SDS011;8322;-33.900;151.170;2023-01-01T02:05:30;7.32;;;1.60;;
16426;SDS011;8322;-33.900;151.170;2023-01-01T02:08:00;9.02;;;2.15;;
16426;SDS011;8322;-33.900;151.170;2023-01-01T02:10:31;12.93;;;2.67;;
16426;SDS011;8322;-33.900;151.170;2023-01-01T02:13:02;11.13;;;2.00;;
16426;SDS011;8322;-33.900;151.170;2023-01-01T02:15:33;6.75;;;2.03;;
16426;SDS011;8322;-33.900;151.170;2023-01-01T02:18:05;13.32;;;2.33;;
16426;SDS011;8322;-33.900;151.170;2023-01-01T02:20:38;10.02;;;2.33;;
16426;SDS011;8322;-33.900;151.170;2023-01-01T02:23:15;12.32;;;2.50;;
16426;SDS011;8322;-33.900;151.170;2023-01-01T02:25:51;12.20;;;2.80;;
16426;SDS011;8322;-33.900;151.170;2023-01-01T02:28:42;10.88;;;2.38;;
16426;SDS011;8322;-33.900;151.170;2023-01-01T02:31:13;11.52;;;3.05;;
16426;SDS011;8322;-33.900;151.170;2023-01-01T02:33:43;10.35;;;2.45;;
16426;SDS011;8322;-33.900;151.170;2023-01-01T02:36:13;9.38;;;1.80;;
16426;SDS011;8322;-33.900;151.170;2023-01-01T02:38:43;12.45;;;2.60;;
16426;SDS011;8322;-33.900;151.170;2023-01-01T02:41:14;10.23;;;2.05;;
16426;SDS011;8322;-33.900;151.170;2023-01-01T02:43:48;9.95;;;2.30;;
16426;SDS011;8322;-33.900;151.170;2023-01-01T02:46:17;9.68;;;2.25;;
16426;SDS011;8322;-33.900;151.170;2023-01-01T02:48:47;11.85;;;2.33;;
16426;SDS011;8322;-33.900;151.170;2023-01-01T02:51:19;8.32;;;2.03;;
16426;SDS011;8322;-33.900;151.170;2023-01-01T02:53:51;8.98;;;1.70;;
16426;SDS011;8322;-33.900;151.170;2023-01-01T02:56:26;10.10;;;1.90;;
16426;SDS011;8322;-33.900;151.170;2023-01-01T02:58:59;10.10;;;1.88;;
16426;SDS011;8322;-33.900;151.170;2023-01-01T03:01:47;8.77;;;1.88;;
16426;SDS011;8322;-33.900;151.170;2023-01-01T03:04:20;8.13;;;1.80;;
16426;SDS011;8322;-33.900;151.170;2023-01-01T03:06:54;7.95;;;2.00;;
16426;SDS011;8322;-33.900;151.170;2023-01-01T03:09:25;7.30;;;1.80;;
16426;SDS011;8322;-33.900;151.170;2023-01-01T03:11:56;8.70;;;1.95;;
16426;SDS011;8322;-33.900;151.170;2023-01-01T03:14:30;7.78;;;1.80;;
16426;SDS011;8322;-33.900;151.170;2023-01-01T03:17:04;9.68;;;1.92;;
16426;SDS011;8322;-33.900;151.170;2023-01-01T03:19:35;10.82;;;2.17;;
16426;SDS011;8322;-33.900;151.170;2023-01-01T03:22:05;8.20;;;1.92;;
16426;SDS011;8322;-33.900;151.170;2023-01-01T03:24:35;8.18;;;1.60;;
16426;SDS011;8322;-33.900;151.170;2023-01-01T03:27:07;9.45;;;1.90;;
16426;SDS011;8322;-33.900;151.170;2023-01-01T03:29:39;8.43;;;2.95;;
16426;SDS011;8322;-33.900;151.170;2023-01-01T03:32:09;8.77;;;1.60;;
16426;SDS011;8322;-33.900;151.170;2023-01-01T03:34:41;13.73;;;2.40;;
16426;SDS011;8322;-33.900;151.170;2023-01-01T03:37:13;14.50;;;3.85;;
16426;SDS011;8322;-33.900;151.170;2023-01-01T03:39:44;10.82;;;3.10;;
16426;SDS011;8322;-33.900;151.170;2023-01-01T03:42:16;15.07;;;4.38;;
16426;SDS011;8322;-33.900;151.170;2023-01-01T03:44:51;11.55;;;3.65;;
16426;SDS011;8322;-33.900;151.170;2023-01-01T03:47:22;13.02;;;2.13;;
16426;SDS011;8322;-33.900;151.170;2023-01-01T03:49:52;12.43;;;2.42;;
16426;SDS011;8322;-33.900;151.170;2023-01-01T03:52:25;16.70;;;2.58;;
16426;SDS011;8322;-33.900;151.170;2023-01-01T03:54:58;11.07;;;2.67;;
16426;SDS011;8322;-33.900;151.170;2023-01-01T03:57:34;9.63;;;2.15;;
16426;SDS011;8322;-33.900;151.170;2023-01-01T04:00:06;12.70;;;2.55;;
16426;SDS011;8322;-33.900;151.170;2023-01-01T04:02:37;13.68;;;2.38;;
16426;SDS011;8322;-33.900;151.170;2023-01-01T04:05:08;11.23;;;2.40;;
16426;SDS011;8322;-33.900;151.170;2023-01-01T04:07:37;14.60;;;2.50;;
16426;SDS011;8322;-33.900;151.170;2023-01-01T04:10:07;9.45;;;2.10;;
16426;SDS011;8322;-33.900;151.170;2023-01-01T04:12:44;9.65;;;2.15;;
16426;SDS011;8322;-33.900;151.170;2023-01-01T04:15:16;11.25;;;2.03;;
16426;SDS011;8322;-33.900;151.170;2023-01-01T04:17:46;11.55;;;2.38;;
16426;SDS011;8322;-33.900;151.170;2023-01-01T04:20:15;8.63;;;2.10;;
16426;SDS011;8322;-33.900;151.170;2023-01-01T04:22:45;9.88;;;2.08;;
16426;SDS011;8322;-33.900;151.170;2023-01-01T04:25:15;12.43;;;2.20;;
16426;SDS011;8322;-33.900;151.170;2023-01-01T04:27:45;12.75;;;2.50;;
16426;SDS011;8322;-33.900;151.170;2023-01-01T04:30:16;13.48;;;2.53;;
16426;SDS011;8322;-33.900;151.170;2023-01-01T04:32:45;10.07;;;2.05;;
16426;SDS011;8322;-33.900;151.170;2023-01-01T04:35:15;17.13;;;2.80;;
16426;SDS011;8322;-33.900;151.170;2023-01-01T04:37:44;11.63;;;1.90;;
16426;SDS011;8322;-33.900;151.170;2023-01-01T04:40:14;9.05;;;1.88;;
16426;SDS011;8322;-33.900;151.170;2023-01-01T04:42:43;12.82;;;2.70;;
16426;SDS011;8322;-33.900;151.170;2023-01-01T04:45:13;13.95;;;2.17;;
16426;SDS011;8322;-33.900;151.170;2023-01-01T04:47:44;13.70;;;2.40;;
16426;SDS011;8322;-33.900;151.170;2023-01-01T04:50:14;11.02;;;2.45;;
16426;SDS011;8322;-33.900;151.170;2023-01-01T04:52:43;9.93;;;1.92;;
16426;SDS011;8322;-33.900;151.170;2023-01-01T04:55:16;11.52;;;2.30;;
16426;SDS011;8322;-33.900;151.170;2023-01-01T04:57:45;10.77;;;2.22;;
16426;SDS011;8322;-33.900;151.170;2023-01-01T05:00:15;10.00;;;1.90;;
16426;SDS011;8322;-33.900;151.170;2023-01-01T05:02:46;14.77;;;2.30;;
16426;SDS011;8322;-33.900;151.170;2023-01-01T05:05:15;13.00;;;2.10;;
16426;SDS011;8322;-33.900;151.170;2023-01-01T05:07:45;11.57;;;2.13;;
16426;SDS011;8322;-33.900;151.170;2023-01-01T05:10:14;9.43;;;2.10;;
16426;SDS011;8322;-33.900;151.170;2023-01-01T05:12:44;10.15;;;2.40;;
16426;SDS011;8322;-33.900;151.170;2023-01-01T05:15:13;7.18;;;2.13;;
16426;SDS011;8322;-33.900;151.170;2023-01-01T05:17:43;9.07;;;2.20;;
16426;SDS011;8322;-33.900;151.170;2023-01-01T05:20:14;11.77;;;2.28;;
16426;SDS011;8322;-33.900;151.170;2023-01-01T05:22:44;11.88;;;2.53;;
16426;SDS011;8322;-33.900;151.170;2023-01-01T05:25:14;12.73;;;2.03;;
16426;SDS011;8322;-33.900;151.170;2023-01-01T05:27:43;9.38;;;2.15;;
16426;SDS011;8322;-33.900;151.170;2023-01-01T05:30:13;8.80;;;2.08;;
16426;SDS011;8322;-33.900;151.170;2023-01-01T05:32:44;8.57;;;1.70;;
16426;SDS011;8322;-33.900;151.170;2023-01-01T05:35:16;11.70;;;2.42;;
16426;SDS011;8322;-33.900;151.170;2023-01-01T05:37:45;8.40;;;2.28;;
16426;SDS011;8322;-33.900;151.170;2023-01-01T05:40:16;14.00;;;2.42;;
16426;SDS011;8322;-33.900;151.170;2023-01-01T05:42:47;12.20;;;2.33;;
16426;SDS011;8322;-33.900;151.170;2023-01-01T05:45:16;13.40;;;2.35;;
16426;SDS011;8322;-33.900;151.170;2023-01-01T05:47:46;12.80;;;2.30;;
16426;SDS011;8322;-33.900;151.170;2023-01-01T05:50:17;11.23;;;2.33;;
16426;SDS011;8322;-33.900;151.170;2023-01-01T05:52:47;10.77;;;1.88;;
16426;SDS011;8322;-33.900;151.170;2023-01-01T05:55:16;8.73;;;1.95;;
16426;SDS011;8322;-33.900;151.170;2023-01-01T05:57:45;13.40;;;2.33;;
16426;SDS011;8322;-33.900;151.170;2023-01-01T06:00:15;11.77;;;1.70;;
16426;SDS011;8322;-33.900;151.170;2023-01-01T06:02:44;12.13;;;2.28;;
16426;SDS011;8322;-33.900;151.170;2023-01-01T06:05:14;9.15;;;2.10;;
16426;SDS011;8322;-33.900;151.170;2023-01-01T06:07:46;12.30;;;2.40;;
16426;SDS011;8322;-33.900;151.170;2023-01-01T06:10:15;9.57;;;2.10;;
16426;SDS011;8322;-33.900;151.170;2023-01-01T06:12:44;12.13;;;2.60;;
16426;SDS011;8322;-33.900;151.170;2023-01-01T06:15:14;12.57;;;2.42;;
16426;SDS011;8322;-33.900;151.170;2023-01-01T06:17:43;10.18;;;2.47;;
16426;SDS011;8322;-33.900;151.170;2023-01-01T06:20:13;13.55;;;2.10;;
16426;SDS011;8322;-33.900;151.170;2023-01-01T06:22:42;10.32;;;2.47;;
16426;SDS011;8322;-33.900;151.170;2023-01-01T06:25:13;11.00;;;2.20;;
16426;SDS011;8322;-33.900;151.170;2023-01-01T06:27:43;11.32;;;2.50;;
16426;SDS011;8322;-33.900;151.170;2023-01-01T06:30:12;9.98;;;2.15;;
16426;SDS011;8322;-33.900;151.170;2023-01-01T06:32:42;10.55;;;2.65;;
16426;SDS011;8322;-33.900;151.170;2023-01-01T06:35:11;13.13;;;2.83;;
16426;SDS011;8322;-33.900;151.170;2023-01-01T06:37:41;12.27;;;2.88;;
16426;SDS011;8322;-33.900;151.170;2023-01-01T06:40:10;14.07;;;2.20;;
16426;SDS011;8322;-33.900;151.170;2023-01-01T06:42:41;13.32;;;2.97;;
16426;SDS011;8322;-33.900;151.170;2023-01-01T06:45:11;9.60;;;2.60;;
16426;SDS011;8322;-33.900;151.170;2023-01-01T06:47:40;13.57;;;3.38;;
16426;SDS011;8322;-33.900;151.170;2023-01-01T06:50:10;15.55;;;2.65;;
16426;SDS011;8322;-33.900;151.170;2023-01-01T06:52:39;14.30;;;3.13;;
16426;SDS011;8322;-33.900;151.170;2023-01-01T06:55:09;11.68;;;2.45;;
16426;SDS011;8322;-33.900;151.170;2023-01-01T06:57:38;13.32;;;2.38;;
16426;SDS011;8322;-33.900;151.170;2023-01-01T07:00:10;12.55;;;2.40;;
16426;SDS011;8322;-33.900;151.170;2023-01-01T07:02:39;13.20;;;2.65;;
16426;SDS011;8322;-33.900;151.170;2023-01-01T07:05:09;12.20;;;2.78;;
16426;SDS011;8322;-33.900;151.170;2023-01-01T07:07:38;15.80;;;3.03;;
16426;SDS011;8322;-33.900;151.170;2023-01-01T07:10:08;14.57;;;3.72;;
16426;SDS011;8322;-33.900;151.170;2023-01-01T07:12:37;15.48;;;3.88;;
16426;SDS011;8322;-33.900;151.170;2023-01-01T07:15:07;15.02;;;4.00;;
16426;SDS011;8322;-33.900;151.170;2023-01-01T07:17:38;14.50;;;2.80;;
16426;SDS011;8322;-33.900;151.170;2023-01-01T07:20:08;14.00;;;3.50;;
16426;SDS011;8322;-33.900;151.170;2023-01-01T07:22:38;17.02;;;2.90;;
16426;SDS011;8322;-33.900;151.170;2023-01-01T07:25:08;22.38;;;3.78;;
16426;SDS011;8322;-33.900;151.170;2023-01-01T07:27:38;18.58;;;4.50;;
16426;SDS011;8322;-33.900;151.170;2023-01-01T07:30:08;16.55;;;4.80;;
16426;SDS011;8322;-33.900;151.170;2023-01-01T07:32:40;13.88;;;3.80;;
16426;SDS011;8322;-33.900;151.170;2023-01-01T07:35:09;16.00;;;5.47;;
16426;SDS011;8322;-33.900;151.170;2023-01-01T07:37:38;20.52;;;6.47;;
16426;SDS011;8322;-33.900;151.170;2023-01-01T07:40:08;15.35;;;3.42;;
16426;SDS011;8322;-33.900;151.170;2023-01-01T07:42:38;17.10;;;4.25;;
16426;SDS011;8322;-33.900;151.170;2023-01-01T07:45:08;21.27;;;2.97;;
16426;SDS011;8322;-33.900;151.170;2023-01-01T07:47:39;16.38;;;4.00;;
16426;SDS011;8322;-33.900;151.170;2023-01-01T07:50:13;14.90;;;4.40;;
16426;SDS011;8322;-33.900;151.170;2023-01-01T07:52:43;12.13;;;2.70;;
16426;SDS011;8322;-33.900;151.170;2023-01-01T07:55:13;13.05;;;3.45;;
16426;SDS011;8322;-33.900;151.170;2023-01-01T07:57:42;18.48;;;3.28;;
16426;SDS011;8322;-33.900;151.170;2023-01-01T08:00:13;11.02;;;2.78;;
16426;SDS011;8322;-33.900;151.170;2023-01-01T08:02:44;14.20;;;2.30;;
16426;SDS011;8322;-33.900;151.170;2023-01-01T08:05:14;11.15;;;3.00;;
16426;SDS011;8322;-33.900;151.170;2023-01-01T08:07:44;12.50;;;3.00;;
16426;SDS011;8322;-33.900;151.170;2023-01-01T08:10:14;13.68;;;3.20;;
16426;SDS011;8322;-33.900;151.170;2023-01-01T08:12:45;14.32;;;3.03;;
16426;SDS011;8322;-33.900;151.170;2023-01-01T08:15:14;13.05;;;2.60;;
16426;SDS011;8322;-33.900;151.170;2023-01-01T08:17:45;13.93;;;3.33;;
16426;SDS011;8322;-33.900;151.170;2023-01-01T08:20:15;11.55;;;3.83;;
16426;SDS011;8322;-33.900;151.170;2023-01-01T08:22:44;12.02;;;3.53;;
16426;SDS011;8322;-33.900;151.170;2023-01-01T08:25:14;9.75;;;2.38;;
16426;SDS011;8322;-33.900;151.170;2023-01-01T08:27:43;14.48;;;3.13;;
16426;SDS011;8322;-33.900;151.170;2023-01-01T08:30:13;13.55;;;2.90;;
16426;SDS011;8322;-33.900;151.170;2023-01-01T08:32:43;16.30;;;3.17;;
16426;SDS011;8322;-33.900;151.170;2023-01-01T08:35:14;20.48;;;3.25;;
16426;SDS011;8322;-33.900;151.170;2023-01-01T08:37:44;16.25;;;3.45;;
16426;SDS011;8322;-33.900;151.170;2023-01-01T08:40:13;18.42;;;3.40;;
16426;SDS011;8322;-33.900;151.170;2023-01-01T08:42:43;14.30;;;4.43;;
16426;SDS011;8322;-33.900;151.170;2023-01-01T08:45:14;15.82;;;4.40;;
16426;SDS011;8322;-33.900;151.170;2023-01-01T08:47:44;14.20;;;4.05;;
16426;SDS011;8322;-33.900;151.170;2023-01-01T08:50:15;13.77;;;3.03;;
16426;SDS011;8322;-33.900;151.170;2023-01-01T08:52:44;14.30;;;3.83;;
16426;SDS011;8322;-33.900;151.170;2023-01-01T08:55:14;16.92;;;3.50;;
16426;SDS011;8322;-33.900;151.170;2023-01-01T08:57:43;16.00;;;4.03;;
16426;SDS011;8322;-33.900;151.170;2023-01-01T09:00:13;13.70;;;4.93;;
16426;SDS011;8322;-33.900;151.170;2023-01-01T09:02:43;20.45;;;3.42;;
16426;SDS011;8322;-33.900;151.170;2023-01-01T09:05:14;15.45;;;3.35;;
16426;SDS011;8322;-33.900;151.170;2023-01-01T09:07:43;19.23;;;3.20;;
16426;SDS011;8322;-33.900;151.170;2023-01-01T09:10:13;15.00;;;3.92;;
16426;SDS011;8322;-33.900;151.170;2023-01-01T09:12:44;13.63;;;3.85;;
16426;SDS011;8322;-33.900;151.170;2023-01-01T09:15:14;19.15;;;5.75;;
16426;SDS011;8322;-33.900;151.170;2023-01-01T09:17:44;16.77;;;4.68;;
16426;SDS011;8322;-33.900;151.170;2023-01-01T09:20:15;18.67;;;5.00;;
16426;SDS011;8322;-33.900;151.170;2023-01-01T09:22:44;19.13;;;5.75;;
16426;SDS011;8322;-33.900;151.170;2023-01-01T09:25:14;13.63;;;4.10;;
16426;SDS011;8322;-33.900;151.170;2023-01-01T09:27:43;16.38;;;5.25;;
16426;SDS011;8322;-33.900;151.170;2023-01-01T09:30:13;17.88;;;4.55;;
16426;SDS011;8322;-33.900;151.170;2023-01-01T09:32:43;12.25;;;3.35;;
16426;SDS011;8322;-33.900;151.170;2023-01-01T09:35:12;15.07;;;3.80;;
16426;SDS011;8322;-33.900;151.170;2023-01-01T09:37:43;19.15;;;4.82;;
16426;SDS011;8322;-33.900;151.170;2023-01-01T09:40:17;12.48;;;4.40;;
16426;SDS011;8322;-33.900;151.170;2023-01-01T09:42:52;13.88;;;3.67;;
16426;SDS011;8322;-33.900;151.170;2023-01-01T09:45:25;14.10;;;3.05;;
16426;SDS011;8322;-33.900;151.170;2023-01-01T09:47:57;16.17;;;2.95;;
16426;SDS011;8322;-33.900;151.170;2023-01-01T09:50:28;11.60;;;2.40;;
16426;SDS011;8322;-33.900;151.170;2023-01-01T09:53:02;11.10;;;2.67;;
16426;SDS011;8322;-33.900;151.170;2023-01-01T09:55:33;13.88;;;3.50;;
16426;SDS011;8322;-33.900;151.170;2023-01-01T09:58:06;12.20;;;2.55;;
16426;SDS011;8322;-33.900;151.170;2023-01-01T10:00:40;12.25;;;3.28;;
16426;SDS011;8322;-33.900;151.170;2023-01-01T10:03:24;16.45;;;5.75;;
16426;SDS011;8322;-33.900;151.170;2023-01-01T10:05:59;12.38;;;2.95;;
16426;SDS011;8322;-33.900;151.170;2023-01-01T10:08:42;13.73;;;3.10;;
16426;SDS011;8322;-33.900;151.170;2023-01-01T10:11:18;13.43;;;3.60;;
16426;SDS011;8322;-33.900;151.170;2023-01-01T10:13:50;21.05;;;4.95;;
16426;SDS011;8322;-33.900;151.170;2023-01-01T10:16:22;12.60;;;3.60;;
16426;SDS011;8322;-33.900;151.170;2023-01-01T10:18:57;12.98;;;2.60;;
16426;SDS011;8322;-33.900;151.170;2023-01-01T10:21:29;14.43;;;2.35;;
16426;SDS011;8322;-33.900;151.170;2023-01-01T10:24:02;10.95;;;2.40;;
16426;SDS011;8322;-33.900;151.170;2023-01-01T10:26:32;11.70;;;2.30;;
16426;SDS011;8322;-33.900;151.170;2023-01-01T10:29:03;17.70;;;3.70;;
16426;SDS011;8322;-33.900;151.170;2023-01-01T10:31:33;11.65;;;2.85;;
16426;SDS011;8322;-33.900;151.170;2023-01-01T10:34:11;8.82;;;3.13;;
16426;SDS011;8322;-33.900;151.170;2023-01-01T10:36:41;14.13;;;3.50;;
16426;SDS011;8322;-33.900;151.170;2023-01-01T10:39:13;15.45;;;2.97;;
16426;SDS011;8322;-33.900;151.170;2023-01-01T10:41:43;15.18;;;3.10;;
16426;SDS011;8322;-33.900;151.170;2023-01-01T10:44:14;17.80;;;3.20;;
16426;SDS011;8322;-33.900;151.170;2023-01-01T10:46:45;13.25;;;2.90;;
16426;SDS011;8322;-33.900;151.170;2023-01-01T10:49:15;10.52;;;2.40;;
16426;SDS011;8322;-33.900;151.170;2023-01-01T10:51:45;17.85;;;4.03;;
16426;SDS011;8322;-33.900;151.170;2023-01-01T10:54:23;12.73;;;2.72;;
16426;SDS011;8322;-33.900;151.170;2023-01-01T10:56:53;14.13;;;2.22;;
16426;SDS011;8322;-33.900;151.170;2023-01-01T10:59:32;11.20;;;2.20;;
16426;SDS011;8322;-33.900;151.170;2023-01-01T11:02:16;13.18;;;2.05;;
16426;SDS011;8322;-33.900;151.170;2023-01-01T11:04:45;11.80;;;2.38;;
16426;SDS011;8322;-33.900;151.170;2023-01-01T11:07:20;13.23;;;3.03;;
16426;SDS011;8322;-33.900;151.170;2023-01-01T11:09:54;9.75;;;2.28;;
16426;SDS011;8322;-33.900;151.170;2023-01-01T11:12:26;13.43;;;2.88;;
16426;SDS011;8322;-33.900;151.170;2023-01-01T11:14:57;18.08;;;3.40;;
16426;SDS011;8322;-33.900;151.170;2023-01-01T11:17:27;13.75;;;3.55;;
16426;SDS011;8322;-33.900;151.170;2023-01-01T11:19:57;15.65;;;4.35;;
16426;SDS011;8322;-33.900;151.170;2023-01-01T11:22:37;16.70;;;5.13;;
16426;SDS011;8322;-33.900;151.170;2023-01-01T11:25:22;17.48;;;4.75;;
16426;SDS011;8322;-33.900;151.170;2023-01-01T11:27:52;13.73;;;3.35;;
16426;SDS011;8322;-33.900;151.170;2023-01-01T11:30:25;9.55;;;2.45;;
16426;SDS011;8322;-33.900;151.170;2023-01-01T11:32:55;8.90;;;2.13;;
16426;SDS011;8322;-33.900;151.170;2023-01-01T11:35:27;13.57;;;2.47;;
16426;SDS011;8322;-33.900;151.170;2023-01-01T11:37:57;8.68;;;2.40;;
16426;SDS011;8322;-33.900;151.170;2023-01-01T11:40:31;9.90;;;2.15;;
16426;SDS011;8322;-33.900;151.170;2023-01-01T11:43:01;11.27;;;2.33;;
16426;SDS011;8322;-33.900;151.170;2023-01-01T11:45:32;15.32;;;2.33;;
16426;SDS011;8322;-33.900;151.170;2023-01-01T11:48:02;11.35;;;2.40;;
16426;SDS011;8322;-33.900;151.170;2023-01-01T11:50:35;13.45;;;2.33;;
16426;SDS011;8322;-33.900;151.170;2023-01-01T11:55:59;10.93;;;2.17;;
16426;SDS011;8322;-33.900;151.170;2023-01-01T11:58:31;9.02;;;1.90;;
16426;SDS011;8322;-33.900;151.170;2023-01-01T12:01:02;12.82;;;2.30;;
16426;SDS011;8322;-33.900;151.170;2023-01-01T12:03:36;9.60;;;2.40;;
16426;SDS011;8322;-33.900;151.170;2023-01-01T12:06:08;9.90;;;2.10;;
16426;SDS011;8322;-33.900;151.170;2023-01-01T12:08:40;10.05;;;2.22;;
16426;SDS011;8322;-33.900;151.170;2023-01-01T12:11:14;11.95;;;2.40;;
16426;SDS011;8322;-33.900;151.170;2023-01-01T12:13:47;10.02;;;2.00;;
16426;SDS011;8322;-33.900;151.170;2023-01-01T12:16:19;9.75;;;2.13;;
16426;SDS011;8322;-33.900;151.170;2023-01-01T12:18:53;11.88;;;2.55;;
16426;SDS011;8322;-33.900;151.170;2023-01-01T12:21:25;11.43;;;2.10;;
16426;SDS011;8322;-33.900;151.170;2023-01-01T12:23:57;14.60;;;2.65;;
16426;SDS011;8322;-33.900;151.170;2023-01-01T12:26:31;13.00;;;2.42;;
16426;SDS011;8322;-33.900;151.170;2023-01-01T12:29:23;12.70;;;2.20;;
16426;SDS011;8322;-33.900;151.170;2023-01-01T12:31:56;12.85;;;2.10;;
16426;SDS011;8322;-33.900;151.170;2023-01-01T12:34:30;12.93;;;2.10;;
16426;SDS011;8322;-33.900;151.170;2023-01-01T12:37:03;10.43;;;1.80;;
16426;SDS011;8322;-33.900;151.170;2023-01-01T12:42:28;10.05;;;2.25;;
16426;SDS011;8322;-33.900;151.170;2023-01-01T12:45:07;9.32;;;1.90;;
16426;SDS011;8322;-33.900;151.170;2023-01-01T12:47:40;10.20;;;2.20;;
16426;SDS011;8322;-33.900;151.170;2023-01-01T12:50:14;10.63;;;1.90;;
16426;SDS011;8322;-33.900;151.170;2023-01-01T12:52:50;11.18;;;2.50;;
16426;SDS011;8322;-33.900;151.170;2023-01-01T12:55:24;10.80;;;2.10;;
16426;SDS011;8322;-33.900;151.170;2023-01-01T12:58:06;8.82;;;1.73;;
16426;SDS011;8322;-33.900;151.170;2023-01-01T13:00:36;12.65;;;2.00;;
16426;SDS011;8322;-33.900;151.170;2023-01-01T13:03:10;11.13;;;1.90;;
16426;SDS011;8322;-33.900;151.170;2023-01-01T13:05:44;11.32;;;2.03;;
16426;SDS011;8322;-33.900;151.170;2023-01-01T13:08:14;16.65;;;2.50;;
16426;SDS011;8322;-33.900;151.170;2023-01-01T13:10:43;10.15;;;2.10;;
16426;SDS011;8322;-33.900;151.170;2023-01-01T13:13:15;14.52;;;2.42;;
16426;SDS011;8322;-33.900;151.170;2023-01-01T13:15:48;10.73;;;1.88;;
16426;SDS011;8322;-33.900;151.170;2023-01-01T13:18:22;7.07;;;1.65;;
16426;SDS011;8322;-33.900;151.170;2023-01-01T13:20:55;8.27;;;1.60;;
16426;SDS011;8322;-33.900;151.170;2023-01-01T13:26:37;9.35;;;1.90;;
16426;SDS011;8322;-33.900;151.170;2023-01-01T13:32:02;7.70;;;1.63;;
16426;SDS011;8322;-33.900;151.170;2023-01-01T13:34:32;9.25;;;1.98;;
16426;SDS011;8322;-33.900;151.170;2023-01-01T13:39:55;10.55;;;1.80;;
16426;SDS011;8322;-33.900;151.170;2023-01-01T13:42:38;10.68;;;2.05;;
16426;SDS011;8322;-33.900;151.170;2023-01-01T13:45:11;11.05;;;2.15;;
16426;SDS011;8322;-33.900;151.170;2023-01-01T13:47:49;9.40;;;2.20;;
16426;SDS011;8322;-33.900;151.170;2023-01-01T13:50:25;10.43;;;2.20;;
16426;SDS011;8322;-33.900;151.170;2023-01-01T13:53:02;13.65;;;2.22;;
16426;SDS011;8322;-33.900;151.170;2023-01-01T14:01:19;10.07;;;2.13;;
16426;SDS011;8322;-33.900;151.170;2023-01-01T14:03:53;11.65;;;1.80;;
16426;SDS011;8322;-33.900;151.170;2023-01-01T14:06:25;8.43;;;1.80;;
16426;SDS011;8322;-33.900;151.170;2023-01-01T14:09:01;10.68;;;2.25;;
16426;SDS011;8322;-33.900;151.170;2023-01-01T14:11:31;11.10;;;1.73;;
16426;SDS011;8322;-33.900;151.170;2023-01-01T14:14:00;11.88;;;2.10;;
16426;SDS011;8322;-33.900;151.170;2023-01-01T14:16:30;8.55;;;2.17;;
16426;SDS011;8322;-33.900;151.170;2023-01-01T14:19:01;10.32;;;1.80;;
16426;SDS011;8322;-33.900;151.170;2023-01-01T14:21:31;9.88;;;2.00;;
16426;SDS011;8322;-33.900;151.170;2023-01-01T14:24:01;13.48;;;2.20;;
16426;SDS011;8322;-33.900;151.170;2023-01-01T14:26:31;11.73;;;2.13;;
16426;SDS011;8322;-33.900;151.170;2023-01-01T14:29:01;11.43;;;2.03;;
16426;SDS011;8322;-33.900;151.170;2023-01-01T14:31:34;7.28;;;1.52;;
16426;SDS011;8322;-33.900;151.170;2023-01-01T14:34:14;6.50;;;1.67;;
16426;SDS011;8322;-33.900;151.170;2023-01-01T14:36:52;8.23;;;1.80;;
16426;SDS011;8322;-33.900;151.170;2023-01-01T14:39:24;6.45;;;1.60;;
16426;SDS011;8322;-33.900;151.170;2023-01-01T14:41:54;11.57;;;2.03;;
16426;SDS011;8322;-33.900;151.170;2023-01-01T14:44:27;9.07;;;1.90;;
16426;SDS011;8322;-33.900;151.170;2023-01-01T14:46:58;8.60;;;1.77;;
16426;SDS011;8322;-33.900;151.170;2023-01-01T14:49:31;10.98;;;1.90;;
16426;SDS011;8322;-33.900;151.170;2023-01-01T14:52:01;7.38;;;1.60;;
16426;SDS011;8322;-33.900;151.170;2023-01-01T14:54:32;8.40;;;2.05;;
16426;SDS011;8322;-33.900;151.170;2023-01-01T14:57:02;8.52;;;1.52;;